Time;durP1;ratioP1;P1;durP2;ratioP2;P2;SDS_P1;SDS_P2;PMS_P1;PMS_P2;Temp;Humidity;BMP_temperature;BMP_pressure;BME280_temperature;BME280_humidity;BME280_pressure;Samples;Min_cycle;Max_cycle;Signal;HPM_P1;HPM_P2
2023/12/26 00:02:06;;;;;;;2.13;0.50;;;;;;;;;;7351228;19;20175;-81
2023/12/26 00:04:32;;;;;;;2.40;0.80;;;;;;;;;;7328066;19;20248;-82
2023/12/26 00:06:57;;;;;;;2.40;0.82;;;;;;;;;;7363323;19;20009;-78
2023/12/26 00:09:22;;;;;;;3.47;1.00;;;;;;;;;;7362166;19;20009;-87
2023/12/26 00:11:47;;;;;;;5.35;1.27;;;;;;;;;;7362476;19;20298;-82
2023/12/26 00:14:12;;;;;;;4.70;1.80;;;;;;;;;;7366193;19;20401;-78
2023/12/26 00:16:41;;;;;;;7.60;2.20;;;;;;;;;;7353743;19;20460;-86
2023/12/26 00:19:06;;;;;;;7.30;1.95;;;;;;;;;;7365344;19;20013;-84
2023/12/26 00:21:31;;;;;;;4.25;1.65;;;;;;;;;;7356061;19;19995;-88
2023/12/26 00:23:57;;;;;;;5.20;1.95;;;;;;;;;;7351199;19;20850;-85
2023/12/26 00:26:22;;;;;;;4.88;1.83;;;;;;;;;;7353912;19;20009;-87
2023/12/26 00:28:47;;;;;;;5.30;1.70;;;;;;;;;;7329411;19;20003;-82
2023/12/26 00:31:12;;;;;;;5.63;2.13;;;;;;;;;;7358922;19;20002;-83
2023/12/26 00:33:38;;;;;;;4.57;1.90;;;;;;;;;;7356029;19;19998;-80
2023/12/26 00:36:03;;;;;;;4.82;1.83;;;;;;;;;;7357722;19;20297;-88
2023/12/26 00:38:28;;;;;;;5.93;1.80;;;;;;;;;;7363846;19;20029;-81
2023/12/26 00:40:54;;;;;;;7.93;1.70;;;;;;;;;;7371743;19;19998;-80
2023/12/26 00:43:19;;;;;;;4.35;2.00;;;;;;;;;;7363724;19;20616;-83
2023/12/26 00:45:44;;;;;;;9.00;2.05;;;;;;;;;;7337518;19;20274;-86
2023/12/26 00:48:10;;;;;;;6.10;1.80;;;;;;;;;;7363668;19;21000;-91
2023/12/26 00:50:41;;;;;;;8.00;1.65;;;;;;;;;;7372208;19;20086;-85
2023/12/26 00:53:06;;;;;;;6.03;1.92;;;;;;;;;;7308300;19;20253;-82
2023/12/26 00:55:31;;;;;;;6.72;1.92;;;;;;;;;;7360634;19;19998;-83
2023/12/26 00:57:56;;;;;;;4.88;1.83;;;;;;;;;;7335244;19;20539;-84
2023/12/26 01:00:22;;;;;;;6.95;1.90;;;;;;;;;;7348368;19;20073;-87
2023/12/26 01:02:47;;;;;;;7.65;1.90;;;;;;;;;;7335045;19;20799;-85
2023/12/26 01:05:12;;;;;;;7.13;2.13;;;;;;;;;;7342580;19;20619;-85
2023/12/26 01:07:38;;;;;;;4.93;1.55;;;;;;;;;;7342612;19;20239;-84
2023/12/26 01:10:05;;;;;;;4.55;1.77;;;;;;;;;;7344761;19;20020;-84
2023/12/26 01:12:30;;;;;;;7.15;1.88;;;;;;;;;;7366536;19;20003;-80
2023/12/26 01:14:55;;;;;;;6.82;2.17;;;;;;;;;;7363917;19;19994;-84
2023/12/26 01:17:20;;;;;;;7.50;2.33;;;;;;;;;;7364740;19;20078;-84
2023/12/26 01:19:47;;;;;;;8.80;2.10;;;;;;;;;;7356065;19;20354;-84
2023/12/26 01:22:12;;;;;;;6.43;2.30;;;;;;;;;;7348402;19;20005;-87
2023/12/26 01:24:37;;;;;;;10.68;2.88;;;;;;;;;;7368628;19;19999;-82
2023/12/26 01:27:02;;;;;;;9.52;2.47;;;;;;;;;;7359224;19;20006;-90
2023/12/26 01:29:28;;;;;;;9.05;2.40;;;;;;;;;;7370214;19;20015;-85
2023/12/26 01:31:53;;;;;;;8.80;2.50;;;;;;;;;;7370039;19;19995;-84
2023/12/26 01:34:18;;;;;;;9.88;2.83;;;;;;;;;;7372400;19;19998;-87
2023/12/26 01:36:43;;;;;;;13.93;2.80;;;;;;;;;;7357921;19;20243;-80
2023/12/26 01:39:10;;;;;;;11.50;2.95;;;;;;;;;;7361910;19;20546;-86
2023/12/26 01:41:35;;;;;;;11.85;3.25;;;;;;;;;;7373007;19;20267;-83
2023/12/26 01:44:00;;;;;;;10.30;3.05;;;;;;;;;;7335208;19;19995;-83
2023/12/26 01:46:26;;;;;;;9.38;3.20;;;;;;;;;;7354811;19;19995;-79
2023/12/26 01:48:52;;;;;;;12.57;3.08;;;;;;;;;;7358152;19;20795;-84
2023/12/26 01:51:19;;;;;;;7.65;2.92;;;;;;;;;;7325177;19;20255;-85
2023/12/26 01:53:44;;;;;;;11.57;3.00;;;;;;;;;;7365470;19;20400;-79
2023/12/26 01:56:10;;;;;;;10.45;2.92;;;;;;;;;;7352327;19;20051;-85
2023/12/26 01:58:36;;;;;;;10.88;3.17;;;;;;;;;;7369361;19;20013;-82
2023/12/26 02:01:02;;;;;;;10.82;3.33;;;;;;;;;;7368761;19;20006;-83
2023/12/26 02:03:27;;;;;;;9.93;3.30;;;;;;;;;;7373101;19;19998;-82
2023/12/26 02:05:52;;;;;;;11.35;3.63;;;;;;;;;;7353049;19;19999;-87
2023/12/26 02:08:17;;;;;;;13.35;3.65;;;;;;;;;;7346653;19;20098;-79
2023/12/26 02:10:43;;;;;;;11.68;3.60;;;;;;;;;;7358884;19;20003;-85
2023/12/26 02:13:08;;;;;;;17.27;3.37;;;;;;;;;;7362377;19;20016;-79
2023/12/26 02:15:33;;;;;;;13.93;3.63;;;;;;;;;;7367340;19;20263;-85
2023/12/26 02:17:58;;;;;;;14.53;3.43;;;;;;;;;;7362592;19;20248;-81
2023/12/26 02:20:23;;;;;;;10.48;3.38;;;;;;;;;;7365098;19;20247;-82
2023/12/26 02:22:49;;;;;;;11.18;3.22;;;;;;;;;;7365995;19;19999;-83
2023/12/26 02:25:15;;;;;;;11.82;3.50;;;;;;;;;;7348352;19;20259;-82
2023/12/26 02:27:41;;;;;;;10.32;3.42;;;;;;;;;;7367003;19;20336;-79
2023/12/26 02:30:08;;;;;;;11.30;3.28;;;;;;;;;;7363889;19;20008;-79
2023/12/26 02:32:34;;;;;;;12.77;4.05;;;;;;;;;;7357545;19;20006;-82
2023/12/26 02:35:00;;;;;;;10.05;3.53;;;;;;;;;;7366070;19;20753;-90
2023/12/26 02:37:26;;;;;;;14.93;4.07;;;;;;;;;;7344852;19;20003;-85
2023/12/26 02:39:51;;;;;;;9.82;3.80;;;;;;;;;;7370444;19;20019;-80
2023/12/26 02:42:20;;;;;;;9.80;3.05;;;;;;;;;;7367092;19;20025;-78
2023/12/26 02:44:45;;;;;;;10.00;3.17;;;;;;;;;;7368001;19;20010;-83
2023/12/26 02:47:11;;;;;;;9.60;3.20;;;;;;;;;;7358297;19;19999;-81
2023/12/26 02:49:36;;;;;;;10.05;3.13;;;;;;;;;;7334479;19;20337;-84
2023/12/26 02:52:02;;;;;;;8.68;3.45;;;;;;;;;;7303718;19;20335;-89
2023/12/26 02:54:27;;;;;;;9.85;3.00;;;;;;;;;;7255373;19;20236;-86
2023/12/26 02:56:52;;;;;;;9.63;3.00;;;;;;;;;;7245477;19;20002;-86
2023/12/26 02:59:18;;;;;;;11.65;3.63;;;;;;;;;;7253381;19;20340;-88
2023/12/26 03:01:43;;;;;;;8.15;2.53;;;;;;;;;;7257461;19;20902;-90
2023/12/26 03:04:09;;;;;;;9.43;2.90;;;;;;;;;;7257988;19;20074;-86
2023/12/26 03:06:34;;;;;;;8.75;3.25;;;;;;;;;;7260846;19;20011;-89
2023/12/26 03:08:59;;;;;;;7.03;2.50;;;;;;;;;;7250746;19;20338;-89
2023/12/26 03:11:26;;;;;;;13.37;3.07;;;;;;;;;;7261999;19;21071;-92
2023/12/26 03:13:51;;;;;;;9.60;2.45;;;;;;;;;;7258096;19;20632;-87
2023/12/26 03:16:16;;;;;;;8.75;2.58;;;;;;;;;;7253002;19;20613;-89
2023/12/26 03:18:41;;;;;;;6.00;2.53;;;;;;;;;;7256125;19;20451;-91
2023/12/26 03:21:07;;;;;;;10.93;2.70;;;;;;;;;;7252793;19;20547;-89
2023/12/26 03:23:32;;;;;;;8.32;2.45;;;;;;;;;;7263208;19;20747;-86
2023/12/26 03:25:57;;;;;;;7.63;2.63;;;;;;;;;;7258501;19;20506;-86
2023/12/26 03:28:22;;;;;;;11.30;2.50;;;;;;;;;;7253713;19;20881;-91
2023/12/26 03:30:47;;;;;;;6.25;1.92;;;;;;;;;;7254862;19;20240;-83
2023/12/26 03:33:13;;;;;;;6.40;2.65;;;;;;;;;;7239652;19;20496;-88
2023/12/26 03:35:38;;;;;;;10.50;2.87;;;;;;;;;;7252729;19;20370;-90
2023/12/26 03:38:03;;;;;;;6.95;2.17;;;;;;;;;;7252102;19;21044;-84
2023/12/26 03:40:29;;;;;;;8.98;2.30;;;;;;;;;;7253891;19;20260;-88
2023/12/26 03:42:55;;;;;;;7.72;2.42;;;;;;;;;;7262192;19;19999;-91
2023/12/26 03:45:21;;;;;;;8.57;2.00;;;;;;;;;;7259596;19;20002;-91
2023/12/26 03:47:46;;;;;;;5.40;2.20;;;;;;;;;;7256497;19;19999;-90
2023/12/26 03:50:11;;;;;;;5.85;2.08;;;;;;;;;;7262236;19;21131;-87
2023/12/26 03:52:37;;;;;;;5.93;2.20;;;;;;;;;;7323571;19;20499;-86
2023/12/26 03:55:02;;;;;;;8.00;2.30;;;;;;;;;;7367571;19;20255;-88
2023/12/26 03:57:27;;;;;;;7.93;2.47;;;;;;;;;;7365582;19;20003;-87
2023/12/26 03:59:52;;;;;;;6.45;2.10;;;;;;;;;;7359186;19;20086;-81
2023/12/26 04:02:18;;;;;;;7.40;1.83;;;;;;;;;;7365756;19;20032;-81
2023/12/26 04:04:44;;;;;;;6.88;2.30;;;;;;;;;;7368516;19;20247;-87
2023/12/26 04:07:09;;;;;;;6.15;1.88;;;;;;;;;;7361409;19;19995;-84
2023/12/26 04:09:34;;;;;;;4.65;1.73;;;;;;;;;;7360525;19;20007;-82
2023/12/26 04:11:59;;;;;;;5.70;2.00;;;;;;;;;;7360499;19;19994;-82
2023/12/26 04:14:25;;;;;;;6.35;2.30;;;;;;;;;;7364888;19;20771;-84
2023/12/26 04:16:50;;;;;;;5.60;2.27;;;;;;;;;;7368145;19;20264;-80
2023/12/26 04:19:15;;;;;;;5.40;1.92;;;;;;;;;;7357078;19;20585;-83
2023/12/26 04:21:40;;;;;;;6.35;2.20;;;;;;;;;;7350316;19;19991;-78
2023/12/26 04:24:06;;;;;;;7.28;1.67;;;;;;;;;;7360628;19;20544;-84
2023/12/26 04:26:31;;;;;;;5.55;1.85;;;;;;;;;;7361010;19;20246;-89
2023/12/26 04:28:56;;;;;;;5.53;1.77;;;;;;;;;;7361100;19;19998;-86
2023/12/26 04:31:21;;;;;;;7.53;2.25;;;;;;;;;;7351957;19;20010;-83
2023/12/26 04:33:47;;;;;;;6.10;2.30;;;;;;;;;;7358390;19;20003;-81
2023/12/26 04:36:12;;;;;;;8.77;1.50;;;;;;;;;;7359697;19;20313;-80
2023/12/26 04:38:37;;;;;;;7.27;2.17;;;;;;;;;;7366131;19;20020;-84
2023/12/26 04:41:02;;;;;;;5.20;1.80;;;;;;;;;;7368734;19;20242;-81
2023/12/26 04:43:27;;;;;;;5.63;1.88;;;;;;;;;;7364519;19;20909;-83
2023/12/26 04:45:52;;;;;;;4.85;1.98;;;;;;;;;;7361682;19;19998;-83
2023/12/26 04:48:18;;;;;;;4.50;1.70;;;;;;;;;;7360488;19;19999;-82
2023/12/26 04:50:43;;;;;;;5.70;1.60;;;;;;;;;;7359203;19;20342;-83
2023/12/26 04:53:10;;;;;;;3.85;1.20;;;;;;;;;;7351205;19;20007;-84
2023/12/26 04:55:35;;;;;;;6.45;1.60;;;;;;;;;;7365673;19;19991;-80
2023/12/26 04:58:00;;;;;;;6.82;1.60;;;;;;;;;;7366742;19;19998;-83
2023/12/26 05:00:25;;;;;;;4.87;1.60;;;;;;;;;;7355274;19;20850;-79
2023/12/26 05:02:51;;;;;;;6.88;1.80;;;;;;;;;;7350936;19;20288;-84
2023/12/26 05:05:16;;;;;;;5.13;1.83;;;;;;;;;;7364058;19;19994;-87
2023/12/26 05:07:41;;;;;;;7.80;1.88;;;;;;;;;;7349410;19;20074;-79
2023/12/26 05:10:06;;;;;;;6.03;1.77;;;;;;;;;;7365264;19;21191;-84
2023/12/26 05:12:32;;;;;;;5.78;1.95;;;;;;;;;;7355657;19;20307;-84
2023/12/26 05:14:57;;;;;;;3.87;1.53;;;;;;;;;;7362443;19;20015;-84
2023/12/26 05:17:22;;;;;;;3.80;1.10;;;;;;;;;;7354825;19;20236;-79
2023/12/26 05:19:48;;;;;;;4.32;1.60;;;;;;;;;;7369029;19;20251;-84
2023/12/26 05:22:13;;;;;;;5.93;1.73;;;;;;;;;;7357622;19;20291;-80
2023/12/26 05:24:39;;;;;;;5.68;1.50;;;;;;;;;;7350590;19;19995;-84
2023/12/26 05:27:04;;;;;;;4.25;1.50;;;;;;;;;;7368708;19;20234;-83
2023/12/26 05:29:29;;;;;;;3.47;1.13;;;;;;;;;;7365651;19;20002;-87
2023/12/26 05:31:54;;;;;;;5.07;1.50;;;;;;;;;;7364278;19;20110;-81
2023/12/26 05:34:20;;;;;;;4.82;1.20;;;;;;;;;;7364869;19;20002;-79
2023/12/26 05:36:45;;;;;;;4.93;1.53;;;;;;;;;;7367294;19;20512;-85
2023/12/26 05:39:10;;;;;;;3.47;1.30;;;;;;;;;;7372574;19;20231;-80
2023/12/26 05:41:36;;;;;;;4.97;1.33;;;;;;;;;;7362673;19;20022;-87
2023/12/26 05:44:01;;;;;;;4.82;1.23;;;;;;;;;;7370216;19;19995;-78
2023/12/26 05:46:29;;;;;;;5.95;1.63;;;;;;;;;;7370069;19;20733;-85
2023/12/26 05:48:55;;;;;;;3.55;1.58;;;;;;;;;;7359502;19;20525;-79
2023/12/26 05:51:20;;;;;;;5.07;1.58;;;;;;;;;;7358130;19;20013;-84
2023/12/26 05:53:45;;;;;;;6.55;1.88;;;;;;;;;;7373101;19;20014;-82
2023/12/26 05:56:10;;;;;;;4.00;1.52;;;;;;;;;;7371332;19;20368;-86
2023/12/26 05:58:36;;;;;;;4.32;1.90;;;;;;;;;;7372573;19;20684;-82
2023/12/26 06:01:01;;;;;;;4.32;1.38;;;;;;;;;;7372264;19;20266;-79
2023/12/26 06:03:27;;;;;;;4.78;1.80;;;;;;;;;;7366810;19;20022;-83
2023/12/26 06:05:52;;;;;;;4.53;1.75;;;;;;;;;;7358822;19;20419;-88
2023/12/26 06:08:17;;;;;;;4.18;1.73;;;;;;;;;;7361663;19;19999;-83
2023/12/26 06:10:42;;;;;;;5.45;1.50;;;;;;;;;;7370497;19;20826;-82
2023/12/26 06:13:07;;;;;;;4.53;1.70;;;;;;;;;;7372428;19;20006;-81
2023/12/26 06:15:32;;;;;;;3.72;1.67;;;;;;;;;;7365848;19;20259;-79
2023/12/26 06:17:59;;;;;;;5.13;1.85;;;;;;;;;;7367550;19;20244;-81
2023/12/26 06:20:24;;;;;;;5.93;1.70;;;;;;;;;;7356212;19;20001;-85
2023/12/26 06:22:49;;;;;;;5.00;1.60;;;;;;;;;;7363827;19;20000;-83
2023/12/26 06:25:15;;;;;;;4.70;1.77;;;;;;;;;;7368707;19;20045;-80
2023/12/26 06:27:40;;;;;;;3.47;1.50;;;;;;;;;;7367597;19;20025;-81
2023/12/26 06:30:05;;;;;;;3.37;1.53;;;;;;;;;;7365403;19;20243;-83
2023/12/26 06:32:30;;;;;;;5.43;1.73;;;;;;;;;;7365236;19;20232;-82
2023/12/26 06:34:56;;;;;;;4.18;1.50;;;;;;;;;;7360494;19;20006;-85
2023/12/26 06:37:21;;;;;;;4.47;1.33;;;;;;;;;;7349796;19;20019;-83
2023/12/26 06:39:46;;;;;;;3.80;1.48;;;;;;;;;;7368795;19;20248;-83
2023/12/26 06:42:11;;;;;;;4.55;1.27;;;;;;;;;;7361942;19;20523;-85
2023/12/26 06:44:36;;;;;;;5.78;1.50;;;;;;;;;;7368787;19;20232;-78
2023/12/26 06:47:01;;;;;;;5.20;1.60;;;;;;;;;;7371672;19;20323;-79
2023/12/26 06:49:27;;;;;;;5.68;1.33;;;;;;;;;;7367072;19;20026;-84
2023/12/26 06:51:52;;;;;;;3.45;1.20;;;;;;;;;;7365107;19;20824;-84
2023/12/26 06:54:17;;;;;;;4.50;1.27;;;;;;;;;;7362554;19;19990;-81
2023/12/26 06:56:42;;;;;;;3.72;1.30;;;;;;;;;;7357761;19;20096;-81
2023/12/26 06:59:07;;;;;;;5.50;1.60;;;;;;;;;;7366586;19;20274;-85
2023/12/26 07:01:33;;;;;;;4.85;1.50;;;;;;;;;;7359705;19;20032;-85
2023/12/26 07:03:58;;;;;;;3.47;1.20;;;;;;;;;;7361551;19;20636;-83
2023/12/26 07:06:24;;;;;;;2.88;1.13;;;;;;;;;;7347453;19;20058;-86
2023/12/26 07:08:49;;;;;;;5.13;1.45;;;;;;;;;;7362214;19;19998;-89
2023/12/26 07:11:15;;;;;;;3.33;1.30;;;;;;;;;;7359132;19;20256;-87
2023/12/26 07:13:40;;;;;;;4.93;1.50;;;;;;;;;;7367027;19;20002;-88
2023/12/26 07:16:05;;;;;;;3.90;1.30;;;;;;;;;;7357157;19;21160;-82
2023/12/26 07:18:30;;;;;;;3.33;1.27;;;;;;;;;;7354299;19;20257;-84
2023/12/26 07:20:55;;;;;;;4.87;1.57;;;;;;;;;;7362227;19;20011;-84
2023/12/26 07:23:21;;;;;;;3.97;1.42;;;;;;;;;;7370295;19;20275;-85
2023/12/26 07:25:46;;;;;;;4.65;1.20;;;;;;;;;;7364424;19;20066;-88
2023/12/26 07:28:14;;;;;;;3.13;1.15;;;;;;;;;;7335723;19;20929;-81
2023/12/26 07:30:39;;;;;;;5.18;1.50;;;;;;;;;;7360560;19;20002;-80
2023/12/26 07:33:04;;;;;;;3.83;1.35;;;;;;;;;;7367860;19;20600;-82
2023/12/26 07:35:30;;;;;;;3.63;1.23;;;;;;;;;;7351033;19;20599;-84
2023/12/26 07:37:55;;;;;;;4.57;1.20;;;;;;;;;;7355980;19;20724;-88
2023/12/26 07:40:21;;;;;;;5.50;1.30;;;;;;;;;;7362073;19;20758;-84
2023/12/26 07:42:47;;;;;;;3.65;1.10;;;;;;;;;;7361278;19;20698;-80
2023/12/26 07:45:12;;;;;;;2.60;0.93;;;;;;;;;;7360293;19;19999;-81
2023/12/26 07:47:37;;;;;;;4.68;1.27;;;;;;;;;;7366398;19;20110;-83
2023/12/26 07:50:03;;;;;;;4.65;1.10;;;;;;;;;;7352084;19;20010;-86
2023/12/26 07:52:28;;;;;;;3.40;1.20;;;;;;;;;;7333979;19;20243;-83
2023/12/26 07:54:53;;;;;;;3.78;1.00;;;;;;;;;;7368948;19;20074;-85
2023/12/26 07:57:18;;;;;;;4.88;1.00;;;;;;;;;;7363557;19;20252;-86
2023/12/26 07:59:43;;;;;;;3.65;1.25;;;;;;;;;;7361939;19;21036;-84
2023/12/26 08:02:08;;;;;;;7.63;1.63;;;;;;;;;;7368285;19;20452;-82
2023/12/26 08:04:33;;;;;;;4.05;1.40;;;;;;;;;;7360283;19;20433;-85
2023/12/26 08:06:59;;;;;;;4.72;1.60;;;;;;;;;;7350675;19;20015;-83
2023/12/26 08:09:24;;;;;;;3.80;1.50;;;;;;;;;;7368449;19;20250;-79
2023/12/26 08:11:49;;;;;;;4.90;1.30;;;;;;;;;;7353692;19;20390;-80
2023/12/26 08:14:17;;;;;;;4.00;1.00;;;;;;;;;;7367778;19;20269;-79
2023/12/26 08:16:42;;;;;;;3.97;1.10;;;;;;;;;;7335609;19;20013;-82
2023/12/26 08:19:07;;;;;;;4.10;1.10;;;;;;;;;;7361268;19;20082;-85
2023/12/26 08:21:33;;;;;;;4.65;1.20;;;;;;;;;;7358472;19;20020;-83
2023/12/26 08:23:58;;;;;;;3.40;1.05;;;;;;;;;;7365324;19;20223;-82
2023/12/26 08:26:29;;;;;;;3.55;0.95;;;;;;;;;;7363998;19;20967;-88
2023/12/26 08:28:55;;;;;;;3.53;0.98;;;;;;;;;;7357115;19;20271;-85
2023/12/26 08:31:20;;;;;;;3.92;1.20;;;;;;;;;;7365337;19;20006;-82
2023/12/26 08:33:45;;;;;;;3.50;1.05;;;;;;;;;;7363177;19;20317;-83
2023/12/26 08:36:10;;;;;;;3.85;1.10;;;;;;;;;;7359669;19;20216;-83
2023/12/26 08:38:36;;;;;;;4.22;0.85;;;;;;;;;;7363373;19;20219;-85
2023/12/26 08:41:01;;;;;;;3.40;1.00;;;;;;;;;;7367097;19;20256;-82
2023/12/26 08:43:28;;;;;;;3.13;0.97;;;;;;;;;;7350153;19;20260;-84
2023/12/26 08:45:53;;;;;;;3.42;0.88;;;;;;;;;;7354983;19;20239;-82
2023/12/26 08:48:19;;;;;;;4.60;0.97;;;;;;;;;;7358107;19;20002;-84
2023/12/26 08:50:44;;;;;;;2.73;1.10;;;;;;;;;;7359184;19;20779;-82
2023/12/26 08:53:09;;;;;;;3.10;0.88;;;;;;;;;;7345302;19;20255;-84
2023/12/26 08:55:34;;;;;;;3.63;0.90;;;;;;;;;;7352194;19;20263;-82
2023/12/26 08:57:59;;;;;;;4.68;1.17;;;;;;;;;;7371207;19;20033;-79
2023/12/26 09:00:24;;;;;;;4.65;1.42;;;;;;;;;;7371107;19;20348;-82
2023/12/26 09:02:50;;;;;;;3.72;1.00;;;;;;;;;;7350559;19;20905;-83
2023/12/26 09:05:15;;;;;;;4.68;1.15;;;;;;;;;;7370740;19;20481;-85
2023/12/26 09:07:40;;;;;;;3.63;0.93;;;;;;;;;;7359658;19;20026;-87
2023/12/26 09:10:05;;;;;;;3.92;1.15;;;;;;;;;;7362664;19;20003;-84
2023/12/26 09:12:31;;;;;;;6.15;1.55;;;;;;;;;;7364646;19;20783;-79
2023/12/26 09:14:56;;;;;;;4.57;1.15;;;;;;;;;;7355728;19;20006;-82
2023/12/26 09:17:21;;;;;;;6.50;1.20;;;;;;;;;;7371268;19;19998;-85
2023/12/26 09:19:46;;;;;;;3.47;1.13;;;;;;;;;;7371199;19;20960;-90
2023/12/26 09:22:12;;;;;;;3.33;1.00;;;;;;;;;;7305814;19;19998;-89
2023/12/26 09:24:37;;;;;;;4.22;0.98;;;;;;;;;;7370457;19;20854;-85
2023/12/26 09:27:02;;;;;;;3.33;1.10;;;;;;;;;;7374680;19;20058;-81
2023/12/26 09:29:27;;;;;;;3.53;1.00;;;;;;;;;;7369151;19;20240;-82
2023/12/26 09:31:53;;;;;;;4.25;1.10;;;;;;;;;;7312504;19;20722;-84
2023/12/26 09:34:18;;;;;;;5.10;1.25;;;;;;;;;;7373368;19;20720;-84
2023/12/26 09:36:43;;;;;;;7.33;1.37;;;;;;;;;;7363550;19;20037;-86
2023/12/26 09:39:08;;;;;;;2.80;0.87;;;;;;;;;;7353605;19;20251;-83
2023/12/26 09:41:33;;;;;;;3.90;0.90;;;;;;;;;;7369168;19;20236;-78
2023/12/26 09:43:58;;;;;;;10.73;1.63;;;;;;;;;;7354589;19;20242;-81
2023/12/26 09:46:24;;;;;;;7.10;1.40;;;;;;;;;;7350587;19;20231;-88
2023/12/26 09:48:49;;;;;;;5.03;1.40;;;;;;;;;;7367977;19;20074;-82
2023/12/26 09:51:18;;;;;;;6.07;1.00;;;;;;;;;;7301243;19;20216;-79
2023/12/26 09:53:44;;;;;;;7.03;1.23;;;;;;;;;;7344379;19;20247;-87
2023/12/26 09:56:10;;;;;;;8.02;1.20;;;;;;;;;;7360957;19;20440;-80
2023/12/26 09:58:38;;;;;;;5.53;1.10;;;;;;;;;;7372921;19;20003;-81
2023/12/26 10:01:03;;;;;;;5.85;1.17;;;;;;;;;;7371505;19;20002;-85
2023/12/26 10:03:30;;;;;;;10.57;1.48;;;;;;;;;;7349116;19;20585;-82
2023/12/26 10:05:57;;;;;;;6.35;1.20;;;;;;;;;;7356429;19;20869;-83
2023/12/26 10:08:22;;;;;;;4.28;1.00;;;;;;;;;;7352841;19;20006;-87
2023/12/26 10:10:48;;;;;;;7.05;1.23;;;;;;;;;;7303522;19;20006;-86
2023/12/26 10:13:13;;;;;;;10.40;1.53;;;;;;;;;;7315462;19;20011;-85
2023/12/26 10:15:40;;;;;;;7.07;1.60;;;;;;;;;;7365214;19;20345;-87
2023/12/26 10:18:07;;;;;;;8.98;1.45;;;;;;;;;;7355541;19;21206;-80
2023/12/26 10:20:33;;;;;;;7.18;1.73;;;;;;;;;;7331298;19;20030;-85
2023/12/26 10:23:01;;;;;;;7.53;1.52;;;;;;;;;;7332568;19;20006;-90
2023/12/26 10:25:26;;;;;;;7.90;1.92;;;;;;;;;;7358766;19;20011;-82
2023/12/26 10:27:54;;;;;;;5.97;1.70;;;;;;;;;;7366404;19;20006;-83
2023/12/26 10:30:20;;;;;;;10.07;1.70;;;;;;;;;;7373810;19;20323;-84
2023/12/26 10:32:45;;;;;;;7.28;1.50;;;;;;;;;;7364581;19;20078;-85
2023/12/26 10:35:16;;;;;;;5.93;1.67;;;;;;;;;;7357771;19;20578;-82
2023/12/26 10:37:42;;;;;;;10.25;1.85;;;;;;;;;;7351668;19;20231;-84
2023/12/26 10:40:07;;;;;;;9.50;1.77;;;;;;;;;;7355789;19;20010;-81
2023/12/26 10:42:34;;;;;;;10.30;1.63;;;;;;;;;;7364434;19;20046;-86
2023/12/26 10:45:05;;;;;;;8.35;1.48;;;;;;;;;;7370846;19;20950;-81
2023/12/26 10:47:31;;;;;;;8.10;1.50;;;;;;;;;;7360803;19;20006;-81
2023/12/26 10:50:00;;;;;;;8.52;1.50;;;;;;;;;;7367407;19;20019;-86
2023/12/26 10:52:26;;;;;;;7.40;1.42;;;;;;;;;;7357058;19;20232;-84
2023/12/26 10:54:52;;;;;;;12.82;5.28;;;;;;;;;;7348105;19;20313;-84
2023/12/26 10:57:17;;;;;;;15.85;5.53;;;;;;;;;;7364524;19;20006;-80
2023/12/26 10:59:42;;;;;;;21.97;7.47;;;;;;;;;;7352883;19;19998;-88
2023/12/26 11:02:08;;;;;;;21.40;7.75;;;;;;;;;;7361478;19;20271;-84
2023/12/26 11:04:33;;;;;;;14.35;2.63;;;;;;;;;;7361392;19;20220;-85
2023/12/26 11:06:58;;;;;;;13.20;3.92;;;;;;;;;;7354360;19;20003;-85
2023/12/26 11:09:23;;;;;;;9.32;2.15;;;;;;;;;;7355346;19;19995;-86
2023/12/26 11:11:49;;;;;;;7.57;2.07;;;;;;;;;;7344950;19;19999;-88
2023/12/26 11:14:14;;;;;;;10.30;2.10;;;;;;;;;;7358306;19;20370;-82
2023/12/26 11:16:39;;;;;;;11.63;3.10;;;;;;;;;;7362055;19;20002;-85
2023/12/26 11:19:05;;;;;;;13.40;2.63;;;;;;;;;;7353367;19;20712;-85
2023/12/26 11:21:31;;;;;;;14.43;2.35;;;;;;;;;;7323456;19;20009;-79
2023/12/26 11:23:56;;;;;;;16.33;3.45;;;;;;;;;;7352008;19;20015;-82
2023/12/26 11:26:21;;;;;;;14.38;2.75;;;;;;;;;;7366541;19;20071;-87
2023/12/26 11:28:47;;;;;;;15.60;3.13;;;;;;;;;;7357139;19;20007;-84
2023/12/26 11:31:13;;;;;;;10.73;2.20;;;;;;;;;;7369628;19;20003;-84
2023/12/26 11:33:39;;;;;;;11.35;2.60;;;;;;;;;;7360290;19;20102;-87
2023/12/26 11:36:04;;;;;;;10.98;2.45;;;;;;;;;;7357841;19;20070;-81
2023/12/26 11:38:30;;;;;;;14.40;3.10;;;;;;;;;;7365390;19;20030;-83
2023/12/26 11:40:55;;;;;;;12.50;3.30;;;;;;;;;;7365400;19;20227;-86
2023/12/26 11:43:20;;;;;;;15.33;4.10;;;;;;;;;;7353611;19;20006;-81
2023/12/26 11:45:45;;;;;;;13.60;3.87;;;;;;;;;;7366895;19;20235;-82
2023/12/26 11:48:10;;;;;;;13.48;3.03;;;;;;;;;;7351625;19;20588;-83
2023/12/26 11:50:35;;;;;;;8.50;2.47;;;;;;;;;;7362665;19;20775;-84
2023/12/26 11:53:01;;;;;;;18.30;6.60;;;;;;;;;;7358392;19;19995;-79
2023/12/26 11:55:26;;;;;;;20.13;8.10;;;;;;;;;;7347770;19;20248;-84
2023/12/26 11:57:51;;;;;;;11.50;3.20;;;;;;;;;;7351182;19;20227;-85
2023/12/26 12:00:16;;;;;;;19.13;7.00;;;;;;;;;;7337982;19;20823;-87
2023/12/26 12:02:41;;;;;;;25.42;9.88;;;;;;;;;;7351104;19;20279;-87
2023/12/26 12:05:06;;;;;;;13.43;4.60;;;;;;;;;;7335102;19;20026;-86
2023/12/26 12:07:32;;;;;;;13.83;2.33;;;;;;;;;;7359586;19;20232;-83
2023/12/26 12:10:09;;;;;;;14.23;3.08;;;;;;;;;;7357425;19;20252;-86
2023/12/26 12:12:34;;;;;;;14.00;3.55;;;;;;;;;;7352228;19;20011;-85
2023/12/26 12:15:00;;;;;;;8.25;1.83;;;;;;;;;;7347781;19;20013;-82
2023/12/26 12:17:25;;;;;;;14.13;4.38;;;;;;;;;;7366328;19;20486;-84
2023/12/26 12:19:50;;;;;;;13.93;3.33;;;;;;;;;;7354227;19;20697;-84
2023/12/26 12:22:22;;;;;;;11.73;3.20;;;;;;;;;;7351089;19;19998;-80
2023/12/26 12:24:48;;;;;;;13.48;3.42;;;;;;;;;;7337485;19;20248;-90
2023/12/26 12:27:13;;;;;;;12.35;2.65;;;;;;;;;;7340600;19;20002;-84
2023/12/26 12:29:57;;;;;;;8.85;3.05;;;;;;;;;;7358520;19;19998;-86
2023/12/26 12:32:22;;;;;;;12.93;2.80;;;;;;;;;;7365257;19;20005;-82
2023/12/26 12:35:06;;;;;;;12.07;2.58;;;;;;;;;;7369514;19;19999;-83
2023/12/26 12:37:31;;;;;;;14.38;2.75;;;;;;;;;;7368481;19;20034;-83
2023/12/26 12:39:56;;;;;;;11.05;2.75;;;;;;;;;;7348713;19;20003;-80
2023/12/26 12:42:21;;;;;;;12.10;2.85;;;;;;;;;;7335039;19;20222;-85
2023/12/26 12:44:46;;;;;;;12.98;2.60;;;;;;;;;;7330871;19;20031;-89
2023/12/26 12:47:12;;;;;;;12.82;3.10;;;;;;;;;;7329150;19;20451;-84
2023/12/26 12:49:37;;;;;;;10.98;2.45;;;;;;;;;;7302217;19;20514;-86
2023/12/26 12:52:02;;;;;;;10.98;2.05;;;;;;;;;;7342483;19;20712;-87
2023/12/26 12:54:28;;;;;;;14.30;2.28;;;;;;;;;;7356235;19;20050;-83
2023/12/26 12:56:53;;;;;;;11.48;2.53;;;;;;;;;;7351518;19;20004;-82
2023/12/26 12:59:18;;;;;;;12.27;2.50;;;;;;;;;;7359361;19;20073;-88
2023/12/26 13:01:43;;;;;;;11.25;2.38;;;;;;;;;;7358693;19;19995;-88
2023/12/26 13:04:08;;;;;;;12.23;2.00;;;;;;;;;;7353027;19;20236;-86
2023/12/26 13:06:34;;;;;;;12.90;2.30;;;;;;;;;;7363494;19;20617;-85
2023/12/26 13:08:59;;;;;;;15.68;2.22;;;;;;;;;;7368457;19;20259;-87
2023/12/26 13:11:24;;;;;;;9.93;2.13;;;;;;;;;;7361022;19;20027;-82
2023/12/26 13:13:49;;;;;;;15.10;2.42;;;;;;;;;;7370343;19;20244;-83
2023/12/26 13:16:14;;;;;;;11.50;2.00;;;;;;;;;;7366426;19;20002;-87
2023/12/26 13:18:39;;;;;;;10.27;2.13;;;;;;;;;;7365315;19;20003;-85
2023/12/26 13:21:05;;;;;;;11.40;1.90;;;;;;;;;;7350873;19;20234;-85
2023/12/26 13:23:30;;;;;;;18.45;4.10;;;;;;;;;;7367813;19;20247;-82
2023/12/26 13:25:55;;;;;;;15.27;3.28;;;;;;;;;;7361845;19;20466;-82
2023/12/26 13:28:20;;;;;;;14.05;2.67;;;;;;;;;;7363549;19;20006;-82
2023/12/26 13:30:46;;;;;;;11.20;2.20;;;;;;;;;;7356094;19;20002;-83
2023/12/26 13:33:11;;;;;;;12.77;2.90;;;;;;;;;;7360264;19;19994;-83
2023/12/26 13:35:37;;;;;;;10.63;2.30;;;;;;;;;;7366786;19;20451;-82
2023/12/26 13:38:02;;;;;;;12.23;3.03;;;;;;;;;;7363600;19;20224;-84
2023/12/26 13:40:27;;;;;;;16.43;2.67;;;;;;;;;;7364441;19;20598;-85
2023/12/26 13:42:52;;;;;;;12.45;2.30;;;;;;;;;;7354806;19;20247;-90
2023/12/26 13:45:17;;;;;;;9.97;2.30;;;;;;;;;;7355965;19;20011;-85
2023/12/26 13:47:42;;;;;;;14.50;2.57;;;;;;;;;;7369619;19;20287;-84
2023/12/26 13:50:07;;;;;;;19.40;3.60;;;;;;;;;;7354662;19;20291;-84
2023/12/26 13:52:33;;;;;;;15.27;3.00;;;;;;;;;;7363356;19;19990;-83
2023/12/26 13:54:58;;;;;;;10.70;2.15;;;;;;;;;;7360607;19;20030;-83
2023/12/26 13:57:23;;;;;;;10.30;2.88;;;;;;;;;;7366746;19;20058;-85
2023/12/26 13:59:48;;;;;;;13.15;2.55;;;;;;;;;;7348433;19;21316;-81
2023/12/26 14:02:13;;;;;;;13.10;2.10;;;;;;;;;;7363984;19;19999;-85
2023/12/26 14:04:38;;;;;;;11.50;2.40;;;;;;;;;;7319094;19;20349;-90
2023/12/26 14:07:04;;;;;;;12.93;3.03;;;;;;;;;;7332798;19;20474;-89
2023/12/26 14:09:29;;;;;;;17.67;3.27;;;;;;;;;;7361691;19;20006;-91
2023/12/26 14:11:54;;;;;;;17.43;2.90;;;;;;;;;;7356083;19;20257;-83
2023/12/26 14:14:20;;;;;;;14.90;3.13;;;;;;;;;;7354573;19;20700;-80
2023/12/26 14:16:45;;;;;;;17.02;3.15;;;;;;;;;;7352142;19;20007;-80
2023/12/26 14:19:10;;;;;;;15.87;3.03;;;;;;;;;;7362924;19;20006;-84
2023/12/26 14:21:35;;;;;;;14.03;2.80;;;;;;;;;;7363167;19;20243;-86
2023/12/26 14:24:00;;;;;;;20.70;3.15;;;;;;;;;;7349482;19;20232;-85
2023/12/26 14:26:26;;;;;;;15.52;2.83;;;;;;;;;;7362225;19;20368;-83
2023/12/26 14:28:51;;;;;;;21.20;3.28;;;;;;;;;;7370250;19;20002;-86